createdAt,value
2019-05-28T00:00:02.406Z,11.30
2019-05-28T00:02:27.002Z,11.30
2019-05-28T00:04:54.992Z,11.20
2019-05-28T00:07:22.447Z,11.20
2019-05-28T00:09:48.677Z,11.10
2019-05-28T00:12:16.809Z,11.20
2019-05-28T00:14:44.675Z,11.10
2019-05-28T00:17:11.649Z,11.20
2019-05-28T00:19:37.739Z,11.20
2019-05-28T00:22:03.949Z,11.20
2019-05-28T00:24:30.007Z,11.30
2019-05-28T00:26:56.858Z,11.40
2019-05-28T00:29:22.943Z,11.40
2019-05-28T00:31:49.017Z,11.40
2019-05-28T00:34:15.821Z,11.40
2019-05-28T00:36:41.919Z,11.40
2019-05-28T00:39:09.012Z,11.40
2019-05-28T00:41:35.849Z,11.40
2019-05-28T00:44:02.733Z,11.40
2019-05-28T00:46:31.341Z,11.40
2019-05-28T00:48:59.131Z,11.40
2019-05-28T00:51:25.960Z,11.30
2019-05-28T00:53:51.945Z,11.30
2019-05-28T00:56:18.721Z,11.30
2019-05-28T00:58:44.754Z,11.30
2019-05-28T01:01:10.775Z,11.30
2019-05-28T01:03:36.765Z,11.40
2019-05-28T01:06:02.778Z,11.40
2019-05-28T01:08:28.759Z,11.40
2019-05-28T01:10:54.754Z,11.40
2019-05-28T01:13:22.975Z,11.50
2019-05-28T01:15:51.433Z,11.60
2019-05-28T01:18:17.525Z,11.50
2019-05-28T01:20:49.539Z,11.60
2019-05-28T01:23:24.526Z,11.50
2019-05-28T01:25:58.988Z,11.50
2019-05-28T01:33:45.407Z,11.60
2019-05-28T01:36:12.596Z,12.10
2019-05-28T01:44:31.004Z,11.50
2019-05-28T01:47:17.093Z,11.50
2019-05-28T02:03:34.578Z,11.20
2019-05-28T02:06:00.603Z,11.10
2019-05-28T02:08:26.630Z,11.10
2019-05-28T02:10:53.823Z,10.90
2019-05-28T02:13:20.646Z,10.70
2019-05-28T02:15:46.857Z,10.90
2019-05-28T02:18:13.116Z,10.90
2019-05-28T02:23:25.703Z,10.80
2019-05-28T02:25:52.556Z,10.80
2019-05-28T02:28:19.412Z,10.70
2019-05-28T02:30:45.504Z,10.70
2019-05-28T02:33:11.541Z,10.60
2019-05-28T02:35:37.558Z,10.60
2019-05-28T02:38:03.614Z,10.60
2019-05-28T02:40:29.678Z,10.50
2019-05-28T02:42:56.409Z,10.50
2019-05-28T02:45:23.213Z,10.40
2019-05-28T02:47:49.226Z,10.40
2019-05-28T02:50:15.277Z,10.40
2019-05-28T02:52:42.047Z,10.30
2019-05-28T02:55:08.822Z,10.30
2019-05-28T02:57:34.860Z,10.30
2019-05-28T03:00:00.849Z,10.30
2019-05-28T03:02:27.788Z,10.20
2019-05-28T03:04:53.809Z,10.30
2019-05-28T03:07:20.545Z,10.30
2019-05-28T03:09:47.308Z,10.30
2019-05-28T03:12:13.319Z,10.30
2019-05-28T03:14:39.373Z,10.30
2019-05-28T03:17:05.436Z,10.30
2019-05-28T03:19:31.468Z,10.20
2019-05-28T03:21:57.488Z,10.20
2019-05-28T03:24:23.550Z,10.20
2019-05-28T03:26:50.263Z,10.20
2019-05-28T03:29:17.160Z,10.10
2019-05-28T03:34:58.702Z,10.60
2019-05-28T03:37:24.758Z,10.00
2019-05-28T03:39:51.520Z,10.00
2019-05-28T03:42:17.501Z,10.10
2019-05-28T03:44:43.551Z,9.80
2019-05-28T03:47:09.593Z,10.10
2019-05-28T03:49:35.612Z,10.00
2019-05-28T03:52:01.615Z,10.10
2019-05-28T03:54:27.636Z,10.00
2019-05-28T03:56:53.643Z,10.20
2019-05-28T03:59:19.668Z,10.20
2019-05-28T04:01:45.649Z,10.20
2019-05-28T04:04:11.664Z,10.10
2019-05-28T04:06:37.680Z,10.20
2019-05-28T04:09:03.654Z,10.20
2019-05-28T04:11:43.960Z,10.20
2019-05-28T04:13:55.719Z,10.20
2019-05-28T04:16:22.473Z,10.30
2019-05-28T04:18:49.205Z,10.40
2019-05-28T04:21:15.970Z,10.40
2019-05-28T04:23:42.101Z,10.40
2019-05-28T04:26:08.826Z,10.60
2019-05-28T04:28:35.564Z,10.60
2019-05-28T04:31:01.649Z,10.60
2019-05-28T04:33:27.670Z,10.70
2019-05-28T04:35:53.700Z,10.80
2019-05-28T04:38:19.680Z,11.00
2019-05-28T04:40:45.684Z,11.00
2019-05-28T04:43:11.658Z,11.10
2019-05-28T04:45:37.976Z,11.20
2019-05-28T04:48:03.982Z,11.30
2019-05-28T04:50:30.112Z,11.30
2019-05-28T04:52:56.209Z,11.30
2019-05-28T04:55:22.216Z,11.30
2019-05-28T04:57:48.186Z,11.40
2019-05-28T05:00:14.226Z,11.50
2019-05-28T05:02:55.592Z,11.60
2019-05-28T05:05:06.316Z,11.60
2019-05-28T05:07:33.128Z,11.50
2019-05-28T05:09:59.967Z,11.50
2019-05-28T05:12:26.279Z,11.50
2019-05-28T05:14:52.642Z,11.40
2019-05-28T05:17:18.696Z,11.50
2019-05-28T05:19:44.748Z,11.50
2019-05-28T05:22:10.788Z,11.50
2019-05-28T05:24:36.818Z,11.80
2019-05-28T05:27:03.036Z,11.80
2019-05-28T05:29:29.933Z,12.00
2019-05-28T05:31:56.133Z,12.00
2019-05-28T05:34:22.940Z,12.40
2019-05-28T05:36:48.935Z,12.40
2019-05-28T05:39:14.950Z,12.40
2019-05-28T05:41:41.709Z,12.50
2019-05-28T05:44:08.409Z,12.60
2019-05-28T05:46:34.458Z,12.60
2019-05-28T05:49:00.570Z,12.60
2019-05-28T05:51:26.649Z,12.70
2019-05-28T05:53:52.867Z,12.80
2019-05-28T05:56:19.029Z,13.10
2019-05-28T05:58:45.082Z,13.10
2019-05-28T06:01:11.845Z,13.30
2019-05-28T06:03:40.871Z,13.30
2019-05-28T06:06:04.237Z,13.10
2019-05-28T06:08:30.417Z,13.10
2019-05-28T06:10:56.438Z,13.00
2019-05-28T06:13:22.488Z,12.90
2019-05-28T06:15:48.610Z,12.90
2019-05-28T06:18:14.817Z,13.10
2019-05-28T06:20:41.992Z,13.10
2019-05-28T06:23:08.036Z,13.10
2019-05-28T06:25:34.060Z,13.20
2019-05-28T06:28:02.396Z,13.40
2019-05-28T06:30:29.789Z,13.40
2019-05-28T06:32:56.390Z,13.40
2019-05-28T06:35:23.271Z,15.10
2019-05-28T06:37:51.152Z,15.00
2019-05-28T06:40:18.204Z,16.50
2019-05-28T06:45:25.932Z,19.50
2019-05-28T06:51:34.225Z,19.70
2019-05-28T06:56:34.991Z,19.40
2019-05-28T06:59:04.026Z,18.00
2019-05-28T07:01:32.097Z,18.00
2019-05-28T07:04:13.780Z,18.90
2019-05-28T07:06:33.658Z,19.60
2019-05-28T07:09:06.926Z,20.40
2019-05-28T07:11:34.250Z,21.80
2019-05-28T07:14:03.701Z,22.70
2019-05-28T07:16:52.175Z,23.00
2019-05-28T07:19:23.080Z,21.80
2019-05-28T07:21:49.574Z,20.60
2019-05-28T07:24:19.976Z,20.40
2019-05-28T07:26:48.305Z,21.30
2019-05-28T07:29:17.819Z,22.60
2019-05-28T07:34:30.317Z,21.50
2019-05-28T07:36:45.068Z,20.20
2019-05-28T07:39:12.286Z,19.30
2019-05-28T07:41:37.587Z,18.30
2019-05-28T07:44:04.714Z,17.30
2019-05-28T07:46:31.971Z,17.00
2019-05-28T07:49:02.190Z,16.50
2019-05-28T07:51:29.053Z,15.50
2019-05-28T07:53:55.150Z,15.50
2019-05-28T07:56:21.299Z,15.40
2019-05-28T07:58:48.080Z,15.30
2019-05-28T08:03:51.003Z,15.30
2019-05-28T08:06:17.039Z,15.20
2019-05-28T08:08:43.117Z,15.60
2019-05-28T08:11:09.195Z,15.80
2019-05-28T08:13:40.767Z,16.40
2019-05-28T08:16:17.629Z,16.30
2019-05-28T08:18:31.601Z,16.30
2019-05-28T08:20:58.677Z,16.40
2019-05-28T08:23:28.779Z,17.50
2019-05-28T08:25:56.335Z,17.50
2019-05-28T08:28:24.479Z,19.80
2019-05-28T08:31:11.776Z,22.00
2019-05-28T08:33:24.774Z,22.20
2019-05-28T08:35:51.711Z,21.20
2019-05-28T08:38:17.721Z,19.00
2019-05-28T08:40:43.807Z,19.00
2019-05-28T08:43:09.943Z,18.60
2019-05-28T08:45:35.984Z,18.20
2019-05-28T08:48:02.846Z,17.50
2019-05-28T08:50:34.273Z,17.50
2019-05-28T08:52:55.032Z,17.20
2019-05-28T08:55:21.130Z,17.40
2019-05-28T08:57:47.185Z,16.90
2019-05-28T09:00:13.293Z,17.20
2019-05-28T09:02:39.494Z,17.90
2019-05-28T09:05:24.458Z,18.50
2019-05-28T09:07:32.478Z,17.10
2019-05-28T09:09:58.706Z,17.70
2019-05-28T09:12:24.949Z,17.60
2019-05-28T09:14:56.369Z,17.30
2019-05-28T09:17:18.950Z,17.40
2019-05-28T09:19:49.028Z,17.30
2019-05-28T09:22:25.018Z,17.00
2019-05-28T09:24:41.973Z,17.70
2019-05-28T09:27:09.707Z,18.60
2019-05-28T09:29:36.683Z,19.10
2019-05-28T09:32:05.468Z,19.70
2019-05-28T09:34:31.524Z,19.70
2019-05-28T09:36:57.703Z,19.90
2019-05-28T09:39:23.849Z,19.70
2019-05-28T09:41:49.993Z,19.60
2019-05-28T09:44:16.071Z,19.50
2019-05-28T09:49:25.265Z,19.20
2019-05-28T09:51:51.475Z,19.20
2019-05-28T09:54:17.546Z,19.30
2019-05-28T09:56:43.627Z,19.60
2019-05-28T09:59:09.932Z,19.70
2019-05-28T10:01:37.291Z,20.00
2019-05-28T10:06:37.799Z,18.50
2019-05-28T10:09:01.442Z,18.50
2019-05-28T10:11:30.293Z,18.20
2019-05-28T10:13:56.311Z,18.50
2019-05-28T10:16:22.317Z,18.80
2019-05-28T10:18:49.173Z,18.80
2019-05-28T10:21:18.921Z,18.80
2019-05-28T10:23:42.609Z,18.50
2019-05-28T10:26:11.336Z,18.30
2019-05-28T10:28:37.541Z,18.20
2019-05-28T10:31:03.625Z,18.30
2019-05-28T10:33:29.900Z,18.30
2019-05-28T10:35:56.668Z,18.50
2019-05-28T10:38:22.781Z,18.50
2019-05-28T10:40:48.902Z,18.70
2019-05-28T10:43:15.803Z,19.20
2019-05-28T10:45:42.665Z,19.40
2019-05-28T10:48:08.681Z,19.40
2019-05-28T10:50:34.675Z,19.30
2019-05-28T10:53:00.676Z,19.10
2019-05-28T10:55:27.496Z,19.20
2019-05-28T10:57:53.584Z,19.20
2019-05-28T11:00:19.659Z,19.10
2019-05-28T11:02:46.450Z,19.00
2019-05-28T11:05:12.524Z,19.00
2019-05-28T11:07:39.344Z,18.70
2019-05-28T11:10:22.605Z,18.70
2019-05-28T11:12:32.459Z,18.70
2019-05-28T11:14:59.500Z,18.60
2019-05-28T11:17:25.707Z,18.40
2019-05-28T11:19:54.565Z,18.20
2019-05-28T11:22:24.914Z,17.90
2019-05-28T11:24:51.189Z,17.90
2019-05-28T11:27:25.891Z,18.10
2019-05-28T11:29:55.637Z,18.60
2019-05-28T11:32:22.563Z,19.10
2019-05-28T11:34:49.885Z,19.10
2019-05-28T11:37:15.961Z,19.30
2019-05-28T11:39:41.989Z,19.20
2019-05-28T11:42:08.882Z,19.00
2019-05-28T11:44:35.895Z,18.60
2019-05-28T11:47:03.581Z,18.30
2019-05-28T11:49:31.577Z,18.30
2019-05-28T11:51:57.724Z,18.50
2019-05-28T11:54:23.922Z,18.50
2019-05-28T11:56:50.096Z,18.50
2019-05-28T11:59:16.161Z,18.60
2019-05-28T12:01:44.295Z,18.10
2019-05-28T12:04:10.517Z,18.00
2019-05-28T12:06:40.076Z,18.10
2019-05-28T12:11:41.039Z,18.40
2019-05-28T12:14:07.882Z,18.40
2019-05-28T12:16:35.187Z,18.30
2019-05-28T12:19:02.380Z,18.00
2019-05-28T12:21:28.433Z,17.90
2019-05-28T12:23:54.470Z,18.00
2019-05-28T12:26:20.606Z,18.00
2019-05-28T12:28:46.727Z,18.10
2019-05-28T12:31:12.780Z,18.40
2019-05-28T12:33:38.811Z,18.40
2019-05-28T12:36:04.832Z,18.60
2019-05-28T12:38:30.871Z,18.80
2019-05-28T12:40:56.913Z,18.80
2019-05-28T12:43:22.987Z,18.90
2019-05-28T12:45:48.993Z,18.80
2019-05-28T12:48:15.021Z,18.60
2019-05-28T12:50:41.065Z,18.40
2019-05-28T12:53:07.134Z,18.30
2019-05-28T12:55:33.984Z,18.20
2019-05-28T12:58:00.042Z,18.10
2019-05-28T13:00:26.114Z,17.90
2019-05-28T13:02:52.889Z,17.70
2019-05-28T13:05:18.903Z,17.70
2019-05-28T13:07:45.639Z,17.50
2019-05-28T13:10:12.389Z,17.30
2019-05-28T13:12:38.406Z,17.20
2019-05-28T13:15:04.538Z,17.10
2019-05-28T13:17:30.641Z,17.30
2019-05-28T13:19:57.424Z,17.20
2019-05-28T13:22:23.467Z,17.20
2019-05-28T13:24:49.581Z,17.60
2019-05-28T13:27:18.434Z,17.90
2019-05-28T13:29:41.745Z,17.80
2019-05-28T13:32:08.858Z,17.50
2019-05-28T13:34:34.114Z,17.50
2019-05-28T13:37:00.005Z,17.40
2019-05-28T13:39:26.083Z,17.60
2019-05-28T13:41:52.093Z,17.80
2019-05-28T13:44:18.865Z,17.60
2019-05-28T13:46:45.679Z,17.50
2019-05-28T13:49:11.704Z,17.50
2019-05-28T13:51:38.446Z,17.50
2019-05-28T13:54:04.468Z,17.40
2019-05-28T13:56:30.483Z,17.00
2019-05-28T13:58:56.516Z,16.90
2019-05-28T14:01:25.582Z,16.80
2019-05-28T14:03:49.664Z,17.10
2019-05-28T14:06:16.521Z,17.10
2019-05-28T14:08:47.057Z,17.10
2019-05-28T14:11:09.668Z,17.20
2019-05-28T14:13:36.748Z,17.30
2019-05-28T14:16:04.163Z,17.20
2019-05-28T14:18:29.688Z,16.50
2019-05-28T14:20:55.728Z,16.50
2019-05-28T14:23:21.777Z,16.10
2019-05-28T14:25:47.827Z,16.00
2019-05-28T14:28:13.851Z,16.00
2019-05-28T14:30:56.470Z,15.60
2019-05-28T14:33:05.916Z,15.50
2019-05-28T14:35:31.925Z,15.50
2019-05-28T14:37:57.919Z,15.50
2019-05-28T14:40:25.240Z,15.60
2019-05-28T14:42:50.739Z,15.60
2019-05-28T14:45:16.800Z,15.60
2019-05-28T14:47:42.833Z,15.70
2019-05-28T14:50:09.620Z,15.70
2019-05-28T14:52:35.639Z,15.70
2019-05-28T14:55:01.684Z,15.60
2019-05-28T14:57:27.760Z,15.50
2019-05-28T14:59:53.857Z,15.50
2019-05-28T15:02:19.952Z,15.50
2019-05-28T15:04:45.997Z,15.40
2019-05-28T15:07:12.788Z,15.60
2019-05-28T15:09:39.597Z,15.50
2019-05-28T15:12:05.584Z,15.50
2019-05-28T15:14:31.576Z,15.40
2019-05-28T15:16:58.355Z,15.50
2019-05-28T15:19:24.386Z,15.50
2019-05-28T15:21:50.425Z,15.30
2019-05-28T15:24:16.403Z,15.20
2019-05-28T15:26:42.438Z,15.30
2019-05-28T15:29:08.469Z,15.00
2019-05-28T15:31:34.516Z,14.90
2019-05-28T15:34:00.528Z,15.00
2019-05-28T15:36:26.584Z,15.10
2019-05-28T15:38:52.618Z,15.10
2019-05-28T15:41:18.813Z,15.20
2019-05-28T15:43:44.857Z,15.00
2019-05-28T15:46:11.609Z,14.70
2019-05-28T15:48:38.354Z,14.70
2019-05-28T15:51:04.375Z,14.60
2019-05-28T15:53:31.140Z,14.70
2019-05-28T15:55:57.900Z,14.80
2019-05-28T15:58:23.874Z,14.70
2019-05-28T16:00:50.683Z,14.50
2019-05-28T16:03:16.728Z,14.40
2019-05-28T16:05:42.781Z,14.30
2019-05-28T16:08:09.534Z,14.20
2019-05-28T16:10:35.614Z,14.20
2019-05-28T16:13:01.623Z,14.20
2019-05-28T16:15:27.695Z,14.20
2019-05-28T16:17:54.422Z,14.10
2019-05-28T16:20:21.187Z,14.10
2019-05-28T16:22:47.208Z,14.10
2019-05-28T16:25:13.233Z,14.00
2019-05-28T16:27:39.282Z,14.00
2019-05-28T16:30:05.379Z,13.90
2019-05-28T16:32:32.146Z,13.80
2019-05-28T16:34:58.137Z,13.80
2019-05-28T16:37:24.168Z,13.80
2019-05-28T16:39:50.251Z,13.60
2019-05-28T16:42:16.259Z,13.60
2019-05-28T16:44:42.273Z,13.60
2019-05-28T16:47:17.727Z,13.60
2019-05-28T16:49:34.532Z,13.90
2019-05-28T16:52:01.241Z,13.90
2019-05-28T16:54:27.662Z,14.00
2019-05-28T16:56:54.991Z,13.90
2019-05-28T16:59:21.951Z,13.80
2019-05-28T17:01:48.858Z,13.70
2019-05-28T17:04:16.438Z,13.70
2019-05-28T17:06:43.486Z,13.30
2019-05-28T17:09:14.751Z,13.50
2019-05-28T17:11:41.649Z,14.40
2019-05-28T17:14:08.826Z,13.50
2019-05-28T17:16:37.248Z,13.60
2019-05-28T17:19:03.887Z,13.50
2019-05-28T17:21:30.275Z,13.50
2019-05-28T17:23:56.468Z,13.40
2019-05-28T17:26:27.035Z,12.70
2019-05-28T17:28:54.480Z,13.40
2019-05-28T17:31:24.359Z,13.10
2019-05-28T17:33:53.054Z,13.10
2019-05-28T17:39:03.630Z,13.10
2019-05-28T17:41:32.178Z,13.20
2019-05-28T17:49:35.735Z,12.40
2019-05-28T17:52:03.306Z,13.00
2019-05-28T17:54:30.114Z,13.00
2019-05-28T17:56:56.507Z,12.90
2019-05-28T17:59:24.391Z,13.00
2019-05-28T18:04:27.501Z,13.00
2019-05-28T18:06:53.720Z,13.20
2019-05-28T18:09:19.880Z,12.90
2019-05-28T18:11:49.081Z,12.70
2019-05-28T18:14:23.138Z,13.80
2019-05-28T18:16:48.038Z,12.30
2019-05-28T18:21:50.831Z,12.60
2019-05-28T18:24:20.983Z,12.50
2019-05-28T18:26:48.669Z,12.50
2019-05-28T18:29:15.556Z,12.40
2019-05-28T18:31:48.848Z,12.30
2019-05-28T18:34:18.941Z,12.50
2019-05-28T18:39:32.612Z,12.30
2019-05-28T18:42:00.778Z,12.20
2019-05-28T18:44:33.007Z,12.20
2019-05-28T18:49:41.510Z,11.90
2019-05-28T18:57:26.683Z,11.90
2019-05-28T18:59:54.500Z,11.90
2019-05-28T19:02:27.097Z,12.00
2019-05-28T19:04:55.515Z,11.90
2019-05-28T19:07:27.287Z,11.40
2019-05-28T19:18:07.503Z,11.50
2019-05-28T19:20:33.629Z,11.50
2019-05-28T19:23:02.438Z,11.40
2019-05-28T19:25:34.532Z,11.40
2019-05-28T19:28:03.019Z,10.50
2019-05-28T19:30:31.254Z,11.10
2019-05-28T19:33:07.175Z,10.90
2019-05-28T19:35:37.612Z,11.60
2019-05-28T19:38:10.690Z,11.10
2019-05-28T19:43:19.491Z,11.20
2019-05-28T19:48:51.123Z,10.80
2019-05-28T19:56:49.219Z,9.90
2019-05-28T19:59:22.998Z,10.60
2019-05-28T20:04:28.398Z,10.40
2019-05-28T20:07:22.726Z,10.40
2019-05-28T20:09:53.041Z,9.40
2019-05-28T20:12:31.251Z,10.20
2019-05-28T20:15:10.344Z,11.00
2019-05-28T20:20:16.202Z,10.70
2019-05-28T20:22:48.134Z,10.00
2019-05-28T20:25:26.135Z,10.30
2019-05-28T20:28:05.356Z,10.00
2019-05-28T20:30:33.358Z,10.00
2019-05-28T20:33:07.296Z,9.80
2019-05-28T20:35:37.820Z,9.80
2019-05-28T20:38:09.704Z,10.00
2019-05-28T20:40:35.321Z,9.70
2019-05-28T20:43:08.273Z,9.70
2019-05-28T20:45:41.084Z,9.90
2019-05-28T20:48:12.533Z,9.60
2019-05-28T20:50:41.562Z,9.60
2019-05-28T20:53:09.930Z,9.60
2019-05-28T20:59:20.098Z,9.40
2019-05-28T21:01:54.105Z,9.40
2019-05-28T21:04:25.854Z,9.30
2019-05-28T21:09:44.134Z,9.20
2019-05-28T21:12:13.957Z,9.00
2019-05-28T21:14:42.804Z,9.10
2019-05-28T21:17:17.324Z,9.00
2019-05-28T21:19:47.525Z,9.00
2019-05-28T21:22:26.855Z,8.50
2019-05-28T21:24:46.862Z,9.00
2019-05-28T21:30:07.100Z,9.00
2019-05-28T21:38:19.763Z,9.00
2019-05-28T21:43:40.738Z,9.00
2019-05-28T21:46:07.605Z,9.00
2019-05-28T21:48:34.747Z,8.90
2019-05-28T21:51:02.842Z,8.80
2019-05-28T21:53:28.287Z,8.80
2019-05-28T21:55:55.122Z,8.10
2019-05-28T21:58:21.416Z,8.70
2019-05-28T22:00:48.932Z,8.80
2019-05-28T22:03:15.035Z,8.70
2019-05-28T22:05:41.663Z,8.70
2019-05-28T22:08:07.952Z,8.60
2019-05-28T22:10:34.327Z,8.30
2019-05-28T22:13:17.521Z,7.90
2019-05-28T22:15:27.980Z,8.50
2019-05-28T22:17:54.347Z,8.50
2019-05-28T22:20:20.871Z,8.50
2019-05-28T22:22:47.354Z,8.40
2019-05-28T22:25:13.595Z,8.40
2019-05-28T22:27:39.919Z,8.40
2019-05-28T22:30:07.576Z,8.30
2019-05-28T22:32:34.331Z,8.30
2019-05-28T22:35:00.460Z,8.30
2019-05-28T22:37:26.775Z,8.10
2019-05-28T22:39:52.948Z,8.10
2019-05-28T22:42:19.144Z,7.90
2019-05-28T22:44:45.332Z,8.00
2019-05-28T22:47:12.833Z,8.00
2019-05-28T22:49:39.960Z,7.90
2019-05-28T22:52:06.171Z,7.90
2019-05-28T22:54:32.309Z,7.90
2019-05-28T22:56:58.467Z,7.40
2019-05-28T22:59:24.851Z,7.80
2019-05-28T23:01:51.017Z,7.70
2019-05-28T23:04:17.183Z,7.70
2019-05-28T23:06:44.521Z,7.70
2019-05-28T23:09:10.912Z,7.70
2019-05-28T23:11:37.242Z,7.60
2019-05-28T23:14:04.162Z,7.60
2019-05-28T23:16:30.092Z,7.60
2019-05-28T23:18:56.188Z,8.00
2019-05-28T23:21:22.201Z,7.50
2019-05-28T23:23:49.245Z,7.20
2019-05-28T23:26:15.349Z,7.40
2019-05-28T23:28:41.430Z,7.40
2019-05-28T23:31:07.946Z,7.40
2019-05-28T23:33:34.114Z,7.40
2019-05-28T23:36:02.555Z,7.40
2019-05-28T23:38:29.533Z,7.40
2019-05-28T23:40:55.561Z,7.40
2019-05-28T23:43:21.631Z,7.40
2019-05-28T23:45:48.740Z,7.30
2019-05-28T23:48:18.230Z,7.30
2019-05-28T23:50:42.700Z,7.20
2019-05-28T23:53:09.694Z,7.10
2019-05-28T23:55:35.910Z,7.10
2019-05-28T23:58:01.953Z,7.10
